Time;durP1;ratioP1;P1;durP2;ratioP2;P2;SDS_P1;SDS_P2;PMS_P1;PMS_P2;Temp;Humidity;BMP_temperature;BMP_pressure;BME280_temperature;BME280_humidity;BME280_pressure;Samples;Min_cycle;Max_cycle;Signal;HPM_P1;HPM_P2
2021/11/07 00:00:35;;;;;;;12.68;4.75;;;;;;;10.50;93.99;101624.31;5038294;28;20108;-74
2021/11/07 00:03:27;;;;;;;15.55;4.88;;;;;;;10.49;93.96;101618.34;5055865;28;20406;-74
2021/11/07 00:08:32;;;;;;;13.40;4.97;;;;;;;10.49;94.59;101609.78;5055848;28;20048;-74
2021/11/07 00:11:01;;;;;;;10.35;5.05;;;;;;;10.43;93.88;101598.34;5055645;28;20028;-74
2021/11/07 00:13:27;;;;;;;13.43;5.13;;;;;;;10.52;93.71;101604.28;5037742;28;20025;-74
2021/11/07 00:15:58;;;;;;;11.23;4.35;;;;;;;10.49;94.32;101596.88;5055617;28;20049;-74
2021/11/07 00:18:33;;;;;;;12.77;4.63;;;;;;;10.47;94.22;101593.63;5055624;28;20333;-73
2021/11/07 00:21:08;;;;;;;15.32;5.00;;;;;;;10.48;94.31;101595.25;5055878;28;20098;-74
2021/11/07 00:23:44;;;;;;;10.98;4.40;;;;;;;10.56;94.07;101582.31;5056023;28;20155;-74
2021/11/07 00:29:06;;;;;;;10.32;4.40;;;;;;;10.43;94.17;101559.56;5017362;28;20352;-74
2021/11/07 00:31:53;;;;;;;15.95;4.40;;;;;;;10.52;94.33;101571.47;5055303;28;20025;-74
2021/11/07 00:37:04;;;;;;;12.18;4.20;;;;;;;10.66;93.96;101575.16;5055574;28;20029;-74
2021/11/07 00:49:59;;;;;;;19.80;4.00;;;;;;;10.84;93.34;101570.53;5055896;28;20068;-75
2021/11/07 00:52:53;;;;;;;22.08;4.55;;;;;;;10.75;93.87;101560.41;5055461;28;20033;-75
2021/11/07 00:55:59;;;;;;;16.35;3.50;;;;;;;10.81;93.56;101559.75;5055402;28;20533;-75
2021/11/07 00:58:14;;;;;;;14.15;3.60;;;;;;;10.80;93.33;101546.00;5050693;28;20041;-75
2021/11/07 01:00:58;;;;;;;20.95;4.55;;;;;;;10.80;93.45;101538.25;5036939;28;20052;-75
2021/11/07 01:03:24;;;;;;;17.88;4.35;;;;;;;10.87;93.12;101555.66;5054790;28;20060;-75
2021/11/07 01:05:50;;;;;;;21.30;4.43;;;;;;;10.86;93.46;101549.69;5055238;28;20052;-75
2021/11/07 01:08:16;;;;;;;16.45;4.13;;;;;;;10.89;93.53;101558.91;5054413;28;20048;-75
2021/11/07 01:10:41;;;;;;;16.40;4.07;;;;;;;10.87;93.91;101550.50;5054537;28;20025;-75
2021/11/07 01:13:07;;;;;;;19.33;4.70;;;;;;;10.83;93.79;101556.00;5054589;28;20021;-75
2021/11/07 01:15:33;;;;;;;15.18;4.10;;;;;;;10.96;93.00;101549.47;5054523;28;20028;-75
2021/11/07 01:17:59;;;;;;;16.95;4.13;;;;;;;11.01;93.00;101540.22;5054441;28;20425;-75
2021/11/07 01:20:27;;;;;;;22.20;4.50;;;;;;;11.03;93.15;101553.81;5054414;28;20052;-76
2021/11/07 01:22:58;;;;;;;17.58;4.13;;;;;;;11.09;92.69;101546.34;5054421;28;20024;-75
2021/11/07 01:25:25;;;;;;;18.75;4.75;;;;;;;11.09;92.83;101551.50;5054408;28;20032;-75
2021/11/07 01:27:52;;;;;;;25.67;4.95;;;;;;;11.07;93.14;101542.13;5036423;28;20096;-75
2021/11/07 01:30:23;;;;;;;25.85;5.00;;;;;;;11.04;93.20;101539.88;5054173;28;20081;-76
2021/11/07 01:32:56;;;;;;;19.00;4.38;;;;;;;11.08;93.06;101537.78;5054479;28;20030;-74
2021/11/07 01:35:32;;;;;;;23.00;4.53;;;;;;;11.15;93.39;101536.09;5036334;28;20050;-74
2021/11/07 01:40:38;;;;;;;22.23;4.97;;;;;;;11.18;92.99;101519.44;5053537;28;20029;-74
2021/11/07 01:43:03;;;;;;;19.20;4.65;;;;;;;11.19;92.94;101527.03;5054280;28;20047;-75
2021/11/07 01:45:39;;;;;;;24.77;4.90;;;;;;;11.10;93.52;101524.66;5036113;28;20227;-74
2021/11/07 01:48:11;;;;;;;21.33;5.00;;;;;;;11.20;92.91;101533.00;5053977;28;20033;-74
2021/11/07 01:50:40;;;;;;;18.73;4.82;;;;;;;11.22;92.79;101525.88;5035871;28;20017;-74
2021/11/07 01:53:30;;;;;;;24.25;5.30;;;;;;;11.25;92.29;101510.81;5053840;28;20102;-74
2021/11/07 01:55:56;;;;;;;24.02;5.60;;;;;;;11.27;92.34;101514.03;5053234;28;20044;-74
2021/11/07 01:58:21;;;;;;;21.58;5.32;;;;;;;11.29;92.76;101517.25;5035957;28;20022;-74
2021/11/07 02:00:49;;;;;;;21.90;5.65;;;;;;;11.27;92.62;101508.03;5053671;28;20027;-74
2021/11/07 02:03:14;;;;;;;26.92;6.07;;;;;;;11.31;92.62;101511.91;5053713;28;20033;-74
2021/11/07 02:05:40;;;;;;;16.98;5.25;;;;;;;11.39;92.11;101505.84;5053655;28;20032;-73
2021/11/07 02:08:06;;;;;;;21.98;5.30;;;;;;;11.42;92.11;101502.91;5035567;28;20472;-74
2021/11/07 02:10:33;;;;;;;19.98;5.63;;;;;;;11.44;92.07;101503.56;5035726;28;20029;-74
2021/11/07 02:12:59;;;;;;;28.23;6.35;;;;;;;11.37;91.96;101492.31;5053579;28;20108;-74
2021/11/07 02:15:24;;;;;;;24.02;5.80;;;;;;;11.38;92.18;101488.72;5053503;28;20060;-74
2021/11/07 02:17:50;;;;;;;24.27;5.97;;;;;;;11.45;92.00;101485.28;5053543;28;20025;-75
2021/11/07 02:20:25;;;;;;;27.58;6.07;;;;;;;11.42;92.28;101487.38;5035597;28;20025;-74
2021/11/07 02:22:51;;;;;;;19.92;6.40;;;;;;;11.43;92.21;101494.19;5035572;28;20021;-74
2021/11/07 02:25:17;;;;;;;21.02;5.68;;;;;;;11.46;92.38;101509.38;5035482;28;20025;-74
2021/11/07 02:27:42;;;;;;;27.40;6.20;;;;;;;11.51;92.79;101505.28;5053428;28;20028;-75
2021/11/07 02:30:10;;;;;;;19.17;5.13;;;;;;;11.48;91.98;101510.00;5053361;28;20024;-74
2021/11/07 02:32:36;;;;;;;18.55;5.35;;;;;;;11.46;91.04;101517.94;5053270;28;20021;-74
2021/11/07 02:35:02;;;;;;;26.13;4.35;;;;;;;11.39;90.96;101518.78;5053234;28;20078;-74
2021/11/07 02:37:29;;;;;;;15.18;3.83;;;;;;;11.20;90.32;101507.94;5053518;28;20103;-74
2021/11/07 02:39:54;;;;;;;19.13;3.88;;;;;;;11.08;90.23;101509.34;5053269;28;20116;-74
2021/11/07 02:42:19;;;;;;;17.98;3.88;;;;;;;11.13;89.96;101496.66;5053551;28;20045;-75
2021/11/07 02:44:45;;;;;;;13.88;3.50;;;;;;;11.11;89.61;101495.25;5053250;28;20025;-74
2021/11/07 02:47:14;;;;;;;17.50;3.70;;;;;;;10.98;89.87;101493.22;5035297;28;20025;-75
2021/11/07 02:49:41;;;;;;;22.77;3.80;;;;;;;10.99;89.89;101485.31;5053235;28;20021;-74
2021/11/07 02:52:09;;;;;;;21.23;3.85;;;;;;;10.82;89.35;101471.66;5053212;28;20028;-74
2021/11/07 02:54:35;;;;;;;23.17;3.38;;;;;;;10.82;89.27;101465.69;5039189;28;20033;-74
2021/11/07 02:57:04;;;;;;;21.48;4.00;;;;;;;10.81;88.91;101469.25;5057084;28;20024;-74
2021/11/07 02:59:32;;;;;;;18.15;3.60;;;;;;;10.73;89.17;101472.72;5039296;28;20138;-74
2021/11/07 03:01:58;;;;;;;18.17;3.65;;;;;;;10.75;89.08;101473.31;5057113;28;20013;-75
2021/11/07 03:04:24;;;;;;;15.23;3.20;;;;;;;10.69;87.67;101468.84;5057529;28;20036;-74
2021/11/07 03:06:49;;;;;;;23.17;3.78;;;;;;;10.69;88.02;101468.84;5056990;28;20025;-74
2021/11/07 03:09:18;;;;;;;21.02;3.42;;;;;;;10.67;87.86;101478.53;5056741;28;20487;-74
2021/11/07 03:11:45;;;;;;;20.92;3.72;;;;;;;10.66;87.51;101481.31;5056817;28;20033;-74
2021/11/07 03:14:20;;;;;;;27.92;3.30;;;;;;;10.65;86.10;101475.31;5056836;28;20021;-74
2021/11/07 03:16:45;;;;;;;22.10;3.58;;;;;;;10.70;85.07;101473.00;5057324;28;20026;-74
2021/11/07 03:19:12;;;;;;;19.88;2.95;;;;;;;10.59;85.68;101471.66;5038826;28;20387;-74
2021/11/07 03:21:38;;;;;;;24.35;3.28;;;;;;;10.71;85.95;101473.84;5057256;28;20421;-74
2021/11/07 03:24:05;;;;;;;21.90;3.40;;;;;;;10.65;84.65;101466.78;5056649;28;20043;-74
2021/11/07 03:26:33;;;;;;;16.25;3.28;;;;;;;10.61;84.27;101471.47;5056520;28;20040;-74
2021/11/07 03:29:01;;;;;;;16.48;3.45;;;;;;;10.60;84.38;101468.06;5056498;28;20107;-73
2021/11/07 03:31:37;;;;;;;26.25;3.28;;;;;;;10.52;85.58;101473.28;5056411;28;20180;-73
2021/11/07 03:34:06;;;;;;;22.35;3.25;;;;;;;10.54;84.15;101476.50;5057052;28;20020;-74
2021/11/07 03:36:43;;;;;;;15.52;3.30;;;;;;;10.42;84.40;101477.06;5038532;28;20028;-74
2021/11/07 03:39:09;;;;;;;22.98;3.35;;;;;;;10.36;83.32;101479.34;5056402;28;20032;-74
2021/11/07 03:41:34;;;;;;;19.50;2.80;;;;;;;10.24;83.73;101464.34;5056263;28;20609;-74
2021/11/07 03:44:00;;;;;;;19.73;2.85;;;;;;;10.21;83.11;101462.88;5056176;28;20039;-73
2021/11/07 03:46:25;;;;;;;16.58;3.60;;;;;;;10.26;82.54;101452.06;5056226;28;20120;-73
2021/11/07 03:48:51;;;;;;;18.45;2.90;;;;;;;10.19;84.01;101457.09;5056250;28;20021;-73
2021/11/07 03:51:16;;;;;;;15.50;2.95;;;;;;;10.23;83.26;101450.63;5056091;28;20055;-73
2021/11/07 03:53:43;;;;;;;19.85;3.05;;;;;;;10.26;82.76;101441.72;5056069;28;20601;-73
2021/11/07 03:56:08;;;;;;;17.90;3.47;;;;;;;10.32;81.94;101454.81;5038233;28;20044;-73
2021/11/07 03:58:34;;;;;;;15.30;3.13;;;;;;;10.26;82.98;101460.63;5038134;28;20435;-73
2021/11/07 04:00:59;;;;;;;18.55;3.25;;;;;;;10.21;81.64;101460.31;5055976;28;20376;-73
2021/11/07 04:03:24;;;;;;;17.15;2.67;;;;;;;10.16;83.16;101458.25;5055346;28;20028;-73
2021/11/07 04:05:50;;;;;;;18.45;2.97;;;;;;;10.14;82.12;101464.53;5037911;28;20033;-74
2021/11/07 04:08:15;;;;;;;19.48;3.30;;;;;;;10.07;81.33;101456.66;5037767;28;20045;-74
2021/11/07 04:10:41;;;;;;;18.60;2.95;;;;;;;10.00;84.40;101449.75;5055723;28;20108;-75
2021/11/07 04:13:06;;;;;;;12.93;3.03;;;;;;;10.00;83.53;101447.16;5056245;28;20073;-74
2021/11/07 04:15:33;;;;;;;19.50;2.92;;;;;;;9.93;80.96;101442.66;5037783;28;20025;-74
2021/11/07 04:17:59;;;;;;;19.88;3.38;;;;;;;9.95;80.12;101445.06;5055650;28;20021;-74
2021/11/07 04:20:25;;;;;;;17.08;3.08;;;;;;;10.09;79.30;101448.75;5037685;28;20083;-74
2021/11/07 04:22:50;;;;;;;21.88;2.92;;;;;;;9.96;82.14;101453.66;5037716;28;20029;-74
2021/11/07 04:25:16;;;;;;;20.08;3.35;;;;;;;9.84;81.20;101463.50;5055490;28;20043;-74
2021/11/07 04:27:41;;;;;;;15.18;2.75;;;;;;;9.86;80.90;101461.56;5055524;28;20064;-75
2021/11/07 04:30:07;;;;;;;19.30;2.97;;;;;;;9.83;82.43;101457.53;5055355;28;20033;-74
2021/11/07 04:32:34;;;;;;;14.05;3.08;;;;;;;9.73;82.78;101463.88;5055579;28;20375;-75
2021/11/07 04:34:59;;;;;;;15.15;2.63;;;;;;;9.68;80.83;101459.97;5055329;28;20352;-73
2021/11/07 04:37:26;;;;;;;20.02;3.90;;;;;;;9.67;80.74;101449.84;5055226;28;20082;-73
2021/11/07 04:39:51;;;;;;;16.85;2.33;;;;;;;9.62;81.22;101442.56;5055171;28;20463;-73
2021/11/07 04:42:17;;;;;;;23.50;2.97;;;;;;;9.59;81.14;101455.00;5055171;28;20021;-74
2021/11/07 04:44:42;;;;;;;18.70;2.97;;;;;;;9.48;82.92;101449.19;5055128;28;20541;-73
2021/11/07 04:47:08;;;;;;;18.70;2.63;;;;;;;9.54;82.20;101446.94;5037139;28;20021;-73
2021/11/07 04:49:34;;;;;;;19.17;3.42;;;;;;;9.46;80.31;101455.50;5055048;28;20079;-73
2021/11/07 04:52:00;;;;;;;18.30;3.08;;;;;;;9.53;79.83;101440.19;5054897;28;20025;-74
2021/11/07 04:54:26;;;;;;;15.70;2.53;;;;;;;9.59;79.20;101439.53;5055417;28;20017;-73
2021/11/07 04:56:52;;;;;;;19.70;3.60;;;;;;;9.63;81.43;101445.97;5054889;28;20028;-73
2021/11/07 04:59:17;;;;;;;20.75;3.08;;;;;;;9.51;81.34;101442.13;5054885;28;20375;-74
2021/11/07 05:01:43;;;;;;;14.20;2.45;;;;;;;9.42;81.19;101449.06;5054845;28;20017;-73
2021/11/07 05:04:08;;;;;;;23.67;3.60;;;;;;;9.47;80.06;101452.75;5036859;28;20025;-73
2021/11/07 05:06:36;;;;;;;18.58;3.60;;;;;;;9.48;79.67;101459.53;5054695;28;20539;-74
2021/11/07 05:09:02;;;;;;;16.52;2.92;;;;;;;9.56;79.62;101457.91;5054464;28;20399;-74
2021/11/07 05:11:27;;;;;;;17.75;3.50;;;;;;;9.51;80.17;101445.50;5055081;28;20478;-73
2021/11/07 05:13:52;;;;;;;19.50;3.00;;;;;;;9.56;82.06;101450.19;5054574;28;20223;-73
2021/11/07 05:16:18;;;;;;;14.80;2.78;;;;;;;9.46;80.67;101451.13;5053708;28;20468;-73
2021/11/07 05:18:44;;;;;;;21.55;2.92;;;;;;;9.56;79.41;101458.72;5054509;28;20086;-73
2021/11/07 05:21:10;;;;;;;12.18;2.50;;;;;;;9.60;79.92;101449.66;5054493;28;20384;-74
2021/11/07 05:23:36;;;;;;;20.42;3.55;;;;;;;9.53;79.52;101451.31;5055462;28;20025;-74
2021/11/07 05:26:01;;;;;;;25.33;4.13;;;;;;;9.57;79.40;101457.75;5054342;28;20052;-73
2021/11/07 05:28:27;;;;;;;20.08;3.65;;;;;;;9.55;78.82;101461.44;5054351;28;20056;-73
2021/11/07 05:30:52;;;;;;;21.17;2.65;;;;;;;9.60;78.18;101454.81;5054124;28;20017;-73
2021/11/07 05:33:18;;;;;;;15.80;2.90;;;;;;;9.63;77.84;101456.28;5054238;28;20083;-73
2021/11/07 05:35:44;;;;;;;28.33;3.28;;;;;;;9.53;79.49;101460.81;5054195;28;20035;-73
2021/11/07 05:38:10;;;;;;;14.43;3.42;;;;;;;9.51;79.10;101471.28;5036322;28;20403;-73
2021/11/07 05:40:35;;;;;;;15.13;3.10;;;;;;;9.45;78.97;101475.31;5054060;28;20051;-73
2021/11/07 05:43:00;;;;;;;18.23;3.10;;;;;;;9.36;79.88;101481.47;5054048;28;20105;-73
2021/11/07 05:45:26;;;;;;;19.67;3.20;;;;;;;9.42;80.97;101467.91;5036098;28;20027;-73
2021/11/07 05:47:51;;;;;;;19.65;3.00;;;;;;;9.45;80.09;101467.59;5054504;28;20104;-73
2021/11/07 05:50:18;;;;;;;16.75;3.50;;;;;;;9.59;79.67;101470.50;5053876;28;20078;-73
2021/11/07 05:52:44;;;;;;;29.67;3.63;;;;;;;9.45;81.44;101466.78;5053679;28;20112;-73
2021/11/07 05:55:10;;;;;;;23.33;3.50;;;;;;;9.46;79.89;101458.06;5053756;28;20067;-74
2021/11/07 05:57:35;;;;;;;17.70;3.28;;;;;;;9.38;81.68;101464.06;5035898;28;20036;-73
2021/11/07 06:00:01;;;;;;;19.02;3.30;;;;;;;9.25;83.05;101472.28;5053994;28;20017;-73
2021/11/07 06:02:26;;;;;;;19.05;2.92;;;;;;;9.32;80.58;101474.19;5053710;28;20471;-73
2021/11/07 06:04:51;;;;;;;18.83;3.25;;;;;;;9.36;81.65;101468.56;5053603;28;20025;-73
2021/11/07 06:07:17;;;;;;;17.98;3.30;;;;;;;9.15;81.62;101455.34;5053653;28;20063;-73
2021/11/07 06:09:42;;;;;;;18.10;3.30;;;;;;;9.27;80.99;101474.69;5053461;28;20070;-73
2021/11/07 06:12:09;;;;;;;23.63;3.55;;;;;;;9.33;80.99;101488.72;5035622;28;20050;-73
2021/11/07 06:14:35;;;;;;;16.00;2.92;;;;;;;9.29;80.56;101483.06;5053744;28;20048;-73
2021/11/07 06:17:00;;;;;;;18.52;3.20;;;;;;;9.31;80.80;101478.56;5053482;28;20141;-73
2021/11/07 06:19:26;;;;;;;22.42;2.80;;;;;;;9.25;80.55;101471.47;5035679;28;20578;-74
2021/11/07 06:21:53;;;;;;;19.95;3.10;;;;;;;9.11;80.48;101472.91;5053454;28;20051;-73
2021/11/07 06:24:24;;;;;;;19.65;3.00;;;;;;;9.13;78.87;101477.91;5053409;28;20017;-73
2021/11/07 06:26:50;;;;;;;13.70;3.17;;;;;;;9.15;79.88;101484.53;5053493;28;20028;-73
2021/11/07 06:29:16;;;;;;;18.05;2.60;;;;;;;9.10;79.41;101483.41;5053366;28;20021;-73
2021/11/07 06:31:42;;;;;;;19.52;2.92;;;;;;;9.19;78.99;101493.53;5053869;28;20036;-73
2021/11/07 06:34:07;;;;;;;17.40;2.88;;;;;;;9.26;79.12;101479.06;5053282;28;20021;-73
2021/11/07 06:36:32;;;;;;;21.25;2.92;;;;;;;9.35;79.17;101464.38;5053334;28;20379;-73
2021/11/07 06:38:59;;;;;;;18.58;2.83;;;;;;;9.41;77.93;101488.72;5053558;28;20079;-73
2021/11/07 06:41:25;;;;;;;15.95;2.92;;;;;;;9.43;78.71;101485.00;5053266;28;20032;-73
2021/11/07 06:43:51;;;;;;;18.48;3.05;;;;;;;9.28;78.12;101496.94;5035354;28;20037;-74
2021/11/07 06:46:16;;;;;;;21.15;3.33;;;;;;;9.24;80.56;101493.88;5053736;28;20025;-74
2021/11/07 06:48:44;;;;;;;12.82;3.20;;;;;;;9.17;78.76;101503.22;5053445;28;20029;-73
2021/11/07 06:51:09;;;;;;;24.70;3.92;;;;;;;9.15;80.60;101501.75;5035263;28;20537;-74
2021/11/07 06:53:36;;;;;;;15.40;2.85;;;;;;;9.15;78.76;101505.16;5053098;28;20032;-74
2021/11/07 06:56:02;;;;;;;26.73;5.05;;;;;;;9.25;78.28;101503.22;5053160;28;20498;-75
2021/11/07 06:58:27;;;;;;;19.27;3.40;;;;;;;9.19;79.14;101501.28;5053050;28;20025;-75
2021/11/07 07:00:52;;;;;;;22.38;3.05;;;;;;;9.30;78.10;101497.59;5053064;28;20371;-75
2021/11/07 07:03:18;;;;;;;14.50;2.83;;;;;;;9.34;79.85;101509.19;5053100;28;20032;-75
2021/11/07 07:05:43;;;;;;;18.27;3.42;;;;;;;9.39;79.26;101494.03;5035179;28;20027;-74
2021/11/07 07:08:13;;;;;;;19.20;3.33;;;;;;;9.62;77.87;101501.13;5052867;28;20123;-73
2021/11/07 07:10:49;;;;;;;22.52;2.72;;;;;;;9.69;78.31;101509.81;5052961;28;20025;-74
2021/11/07 07:19:04;;;;;;;19.83;3.05;;;;;;;9.72;78.35;101506.91;5052990;28;20043;-74
2021/11/07 07:21:40;;;;;;;20.40;3.28;;;;;;;9.80;77.79;101503.53;5034996;28;20017;-74
2021/11/07 07:27:05;;;;;;;18.70;3.30;;;;;;;9.81;78.80;101502.53;5053336;28;20048;-74
2021/11/07 07:29:39;;;;;;;17.08;3.42;;;;;;;9.84;77.53;101497.03;5034960;28;20052;-73
2021/11/07 07:32:27;;;;;;;21.60;3.03;;;;;;;9.84;78.10;101504.78;5034778;28;20036;-75
2021/11/07 07:34:58;;;;;;;24.63;3.80;;;;;;;9.91;78.04;101514.31;5052710;28;20467;-75
2021/11/07 07:37:23;;;;;;;16.30;3.17;;;;;;;9.63;80.14;101498.38;5053302;28;20025;-74
2021/11/07 07:39:48;;;;;;;19.40;2.95;;;;;;;9.51;81.52;101515.16;5055434;28;20021;-73
2021/11/07 07:42:14;;;;;;;24.60;3.63;;;;;;;9.52;82.49;101515.97;5038338;28;20485;-74
2021/11/07 07:44:39;;;;;;;20.85;3.35;;;;;;;9.55;81.98;101513.06;5056286;28;20025;-74
2021/11/07 07:47:05;;;;;;;26.13;3.60;;;;;;;9.56;81.66;101517.25;5056255;28;20104;-74
2021/11/07 07:49:30;;;;;;;20.38;3.67;;;;;;;9.68;82.04;101521.13;5056204;28;20024;-74
2021/11/07 07:51:57;;;;;;;18.88;3.33;;;;;;;9.83;82.78;101524.66;5056119;28;20024;-75
2021/11/07 07:54:22;;;;;;;18.27;3.05;;;;;;;9.99;82.10;101523.03;5056240;28;20055;-72
2021/11/07 07:56:48;;;;;;;20.90;3.38;;;;;;;10.89;78.88;101526.09;5056223;28;20021;-74
2021/11/07 07:59:14;;;;;;;15.40;2.95;;;;;;;11.56;74.54;101535.00;5056065;28;20024;-74
2021/11/07 08:01:40;;;;;;;17.95;3.03;;;;;;;10.83;78.35;101529.34;5055979;28;20052;-75
2021/11/07 08:04:06;;;;;;;27.33;4.68;;;;;;;10.55;78.11;101534.97;5055913;28;20044;-74
2021/11/07 08:06:31;;;;;;;22.13;3.17;;;;;;;10.42;78.95;101529.53;5037930;28;20475;-74
2021/11/07 08:08:57;;;;;;;22.65;3.50;;;;;;;10.36;78.86;101536.19;5055668;28;20049;-74
2021/11/07 08:11:23;;;;;;;22.80;3.47;;;;;;;10.41;78.50;101534.88;5038126;28;20590;-74
2021/11/07 08:13:50;;;;;;;24.63;3.33;;;;;;;10.50;78.08;101539.03;5055817;28;20025;-75
2021/11/07 08:16:17;;;;;;;19.83;3.90;;;;;;;10.84;77.11;101536.13;5037771;28;20127;-74
2021/11/07 08:18:43;;;;;;;24.60;3.75;;;;;;;11.00;74.80;101524.91;5055654;28;20099;-74
2021/11/07 08:21:09;;;;;;;18.33;3.63;;;;;;;11.20;75.81;101528.63;5055637;28;20100;-75
2021/11/07 08:23:35;;;;;;;24.65;3.45;;;;;;;11.16;74.17;101518.78;5037643;28;20531;-74
2021/11/07 08:26:02;;;;;;;20.98;2.97;;;;;;;10.90;76.00;101532.06;5055522;28;20025;-74
2021/11/07 08:28:28;;;;;;;25.10;3.33;;;;;;;10.57;77.55;101532.22;5055679;28;20025;-74
2021/11/07 08:30:57;;;;;;;18.25;3.25;;;;;;;10.33;77.48;101523.59;5037526;28;20479;-74
2021/11/07 08:33:22;;;;;;;15.07;3.10;;;;;;;10.16;80.47;101520.22;5055878;28;20023;-75
2021/11/07 08:35:48;;;;;;;13.30;2.90;;;;;;;10.06;80.53;101531.72;5055533;28;20024;-75
2021/11/07 08:38:26;;;;;;;18.98;3.22;;;;;;;10.05;82.06;101527.53;5055079;28;20021;-75
2021/11/07 08:40:54;;;;;;;22.45;3.85;;;;;;;10.27;81.28;101539.78;5055292;28;20025;-74
2021/11/07 09:05:09;;;;;;;22.55;3.05;;;;;;;10.62;78.90;101548.03;5055148;28;20037;-74
2021/11/07 09:07:41;;;;;;;23.42;3.30;;;;;;;10.94;78.01;101548.84;5054758;28;20487;-75
2021/11/07 09:10:16;;;;;;;15.15;3.15;;;;;;;11.09;76.90;101536.00;5036613;28;20407;-72
2021/11/07 09:12:41;;;;;;;13.30;2.40;;;;;;;11.21;74.50;101522.47;5054342;28;20025;-72
2021/11/07 09:15:07;;;;;;;18.45;2.95;;;;;;;11.80;74.68;101547.75;5036543;28;20120;-73
2021/11/07 09:17:32;;;;;;;15.05;2.50;;;;;;;14.67;63.99;101528.69;5054475;28;20468;-72
2021/11/07 09:20:04;;;;;;;20.05;3.25;;;;;;;14.14;64.72;101541.44;5054274;28;20021;-73
2021/11/07 09:22:45;;;;;;;14.00;3.13;;;;;;;12.44;71.33;101543.88;5036462;28;20024;-71
2021/11/07 09:25:23;;;;;;;18.60;3.05;;;;;;;11.71;74.45;101551.38;5054273;28;20033;-72
2021/11/07 09:28:04;;;;;;;20.85;3.30;;;;;;;11.38;76.62;101545.66;5036253;28;20395;-72
2021/11/07 09:30:39;;;;;;;16.10;2.70;;;;;;;11.14;76.26;101544.84;5054260;28;20486;-73
2021/11/07 09:35:41;;;;;;;22.95;2.95;;;;;;;11.22;77.66;101546.56;5054441;28;20047;-75
2021/11/07 09:39:18;;;;;;;18.30;2.72;;;;;;;11.32;76.59;101539.38;5036304;28;20059;-75
2021/11/07 09:41:29;;;;;;;18.85;2.75;;;;;;;10.86;75.87;101541.13;5036522;28;20036;-74
2021/11/07 09:46:33;;;;;;;21.05;2.92;;;;;;;13.32;68.31;101545.41;5053995;28;20498;-75
2021/11/07 09:49:03;;;;;;;16.88;2.92;;;;;;;17.35;55.87;101545.16;5036381;28;20027;-74
2021/11/07 09:51:34;;;;;;;23.58;3.13;;;;;;;19.35;49.00;101538.38;5053873;28;20021;-74
2021/11/07 09:54:01;;;;;;;21.65;3.20;;;;;;;20.06;47.87;101551.50;5054298;28;20016;-75
2021/11/07 09:56:27;;;;;;;16.80;3.58;;;;;;;19.56;46.92;101544.91;5035854;28;20386;-74
2021/11/07 09:58:55;;;;;;;22.02;3.80;;;;;;;20.70;43.84;101541.72;5035896;28;20025;-76
2021/11/07 10:01:22;;;;;;;15.88;3.67;;;;;;;20.88;42.48;101548.59;5053370;28;20475;-76
2021/11/07 10:03:50;;;;;;;20.30;3.80;;;;;;;19.67;46.45;101551.19;5053640;28;20127;-76
2021/11/07 10:06:35;;;;;;;20.42;3.72;;;;;;;19.12;48.77;101551.44;5053929;28;20463;-74
2021/11/07 10:09:02;;;;;;;15.75;3.40;;;;;;;18.12;50.64;101550.09;5053646;28;20059;-75
2021/11/07 10:11:33;;;;;;;18.23;3.50;;;;;;;19.54;47.29;101551.41;5053399;28;20484;-75
2021/11/07 10:14:11;;;;;;;18.90;3.53;;;;;;;17.84;49.29;101537.53;5053587;28;20020;-74
2021/11/07 10:16:43;;;;;;;16.65;3.42;;;;;;;15.21;56.80;101540.81;5053564;28;20435;-75
2021/11/07 10:19:16;;;;;;;18.98;3.80;;;;;;;13.49;62.06;101539.00;5053567;28;20105;-74
2021/11/07 10:21:50;;;;;;;21.75;3.35;;;;;;;12.96;64.14;101540.28;5036464;28;20111;-74
2021/11/07 10:24:21;;;;;;;19.23;3.40;;;;;;;15.95;55.60;101539.00;5035466;28;20544;-74
2021/11/07 10:26:54;;;;;;;23.05;4.00;;;;;;;13.29;63.73;101543.19;5053435;28;20021;-75
2021/11/07 10:29:56;;;;;;;19.88;3.38;;;;;;;12.36;66.24;101545.56;5053876;28;20025;-73
2021/11/07 10:32:30;;;;;;;21.10;3.40;;;;;;;12.57;67.36;101531.03;5053912;28;20017;-74
2021/11/07 10:38:24;;;;;;;21.40;3.25;;;;;;;11.83;68.45;101544.78;5053617;28;20095;-74
2021/11/07 10:41:03;;;;;;;17.10;3.28;;;;;;;12.25;68.26;101521.88;5035513;28;20035;-74
2021/11/07 10:43:51;;;;;;;19.05;3.30;;;;;;;12.15;68.46;101554.06;5053534;28;20158;-74
2021/11/07 10:46:41;;;;;;;19.75;3.08;;;;;;;11.47;71.23;101549.78;5053781;28;20028;-74
2021/11/07 10:52:23;;;;;;;20.52;3.10;;;;;;;11.14;74.65;101529.34;5053430;28;20167;-74
2021/11/07 10:54:50;;;;;;;28.00;3.92;;;;;;;10.98;75.65;101544.94;5053392;28;20082;-73
2021/11/07 10:57:22;;;;;;;20.20;3.05;;;;;;;10.96;77.52;101541.72;5035275;28;20387;-74
2021/11/07 11:00:06;;;;;;;18.23;3.20;;;;;;;10.92;76.96;101543.84;5053130;28;20040;-74
2021/11/07 11:02:39;;;;;;;23.77;3.53;;;;;;;12.72;70.66;101537.03;5035182;28;20029;-74
2021/11/07 11:05:29;;;;;;;16.30;3.20;;;;;;;17.01;57.24;101543.81;5053433;28;20379;-74
2021/11/07 11:08:04;;;;;;;20.30;3.38;;;;;;;14.62;64.42;101541.50;5053393;28;20033;-74
2021/11/07 11:10:58;;;;;;;24.83;3.45;;;;;;;13.06;69.82;101530.38;5053569;28;20467;-73
2021/11/07 11:13:36;;;;;;;16.10;3.63;;;;;;;12.23;71.45;101541.97;5052350;28;20037;-74
2021/11/07 11:19:31;;;;;;;26.67;4.05;;;;;;;11.69;73.14;101540.38;5057659;28;20048;-73
2021/11/07 11:22:08;;;;;;;19.38;4.18;;;;;;;12.05;69.87;101540.53;5038797;28;20383;-73
2021/11/07 11:27:36;;;;;;;20.27;3.10;;;;;;;19.02;51.71;101525.81;5057428;28;20037;-75
2021/11/07 11:30:27;;;;;;;20.95;4.03;;;;;;;20.62;44.07;101522.91;5056637;28;20485;-75
2021/11/07 11:33:16;;;;;;;17.45;3.08;;;;;;;21.00;43.57;101527.50;5056468;28;20025;-75
2021/11/07 11:35:59;;;;;;;22.40;4.30;;;;;;;21.23;44.28;101534.44;5056497;28;20071;-75
2021/11/07 11:38:33;;;;;;;17.25;3.85;;;;;;;19.24;47.06;101526.06;5056516;28;20056;-75
2021/11/07 11:41:08;;;;;;;17.08;3.90;;;;;;;15.41;59.76;101537.41;5038385;28;20032;-75
2021/11/07 11:43:40;;;;;;;24.10;4.13;;;;;;;13.64;66.41;101527.72;5038672;28;20024;-74
2021/11/07 11:46:36;;;;;;;26.98;4.57;;;;;;;15.82;59.91;101539.03;5038394;28;20108;-73
2021/11/07 11:55:21;;;;;;;21.55;3.90;;;;;;;19.20;49.12;101538.03;5056051;28;20502;-75
2021/11/07 12:00:31;;;;;;;19.63;3.78;;;;;;;20.68;43.49;101530.63;5056277;28;20115;-75
2021/11/07 12:03:06;;;;;;;21.00;4.18;;;;;;;17.66;50.78;101513.94;5056004;28;20497;-75
2021/11/07 12:05:40;;;;;;;20.85;3.92;;;;;;;15.97;59.30;101518.75;5056178;28;20099;-73
2021/11/07 12:08:11;;;;;;;26.00;4.47;;;;;;;18.57;50.60;101523.59;5037834;28;20464;-74
2021/11/07 12:10:45;;;;;;;16.83;3.80;;;;;;;15.30;57.26;101523.97;5056143;28;20352;-74
2021/11/07 12:13:58;;;;;;;24.05;4.20;;;;;;;13.75;63.95;101527.19;5056276;28;20021;-74
2021/11/07 12:16:55;;;;;;;22.75;4.18;;;;;;;12.63;64.96;101533.75;5037833;28;20029;-74
2021/11/07 12:19:30;;;;;;;26.80;3.90;;;;;;;12.06;65.92;101523.25;5055702;28;20021;-73
2021/11/07 12:21:58;;;;;;;28.25;3.95;;;;;;;11.98;65.66;101526.72;5055641;28;20052;-74
2021/11/07 12:24:47;;;;;;;22.67;3.42;;;;;;;11.92;66.15;101536.00;5055281;28;20021;-73
2021/11/07 12:27:33;;;;;;;28.60;3.85;;;;;;;11.87;66.40;101521.97;5055870;28;20047;-73
2021/11/07 12:30:03;;;;;;;26.25;4.22;;;;;;;11.75;68.97;101527.53;5055621;28;20041;-73
2021/11/07 12:32:34;;;;;;;22.63;3.88;;;;;;;11.42;68.27;101519.28;5037419;28;20021;-73
2021/11/07 12:35:18;;;;;;;27.88;4.28;;;;;;;11.41;67.42;101529.78;5037551;28;20021;-74
2021/11/07 12:41:06;;;;;;;23.17;3.83;;;;;;;11.24;70.23;101534.25;5055622;28;20043;-74
2021/11/07 12:43:50;;;;;;;30.25;4.35;;;;;;;10.97;74.60;101564.84;5055308;28;20388;-73
2021/11/07 12:49:13;;;;;;;24.45;4.65;;;;;;;10.31;76.55;101551.38;5056003;28;20078;-74
2021/11/07 12:51:43;;;;;;;24.13;3.70;;;;;;;10.31;77.13;101548.78;5055143;28;20150;-75
2021/11/07 12:54:18;;;;;;;17.15;4.07;;;;;;;10.63;75.55;101535.91;5037341;28;20025;-71
2021/11/07 12:57:07;;;;;;;21.73;3.67;;;;;;;10.38;76.59;101529.06;5055007;28;20040;-73